Time;durP1;ratioP1;P1;durP2;ratioP2;P2;SDS_P1;SDS_P2;PMS_P1;PMS_P2;Temp;Humidity;BMP_temperature;BMP_pressure;BME280_temperature;BME280_humidity;BME280_pressure;Samples;Min_cycle;Max_cycle;Signal;HPM_P1;HPM_P2
2023/04/22 00:01:54;;;;;;;8.02;7.32;;;;;;;8.22;97.80;100899.41;6098515;23;20015;-77
2023/04/22 00:04:21;;;;;;;9.65;7.65;;;;;;;8.17;97.27;100901.81;6101019;23;20046;-77
2023/04/22 00:06:48;;;;;;;8.30;7.30;;;;;;;8.13;97.41;100896.63;6100701;23;20023;-76
2023/04/22 00:09:14;;;;;;;8.63;7.60;;;;;;;8.08;97.86;100886.50;6100655;23;20050;-76
2023/04/22 00:11:41;;;;;;;9.40;7.40;;;;;;;8.07;98.22;100885.03;6100687;23;20054;-77
2023/04/22 00:14:07;;;;;;;8.38;7.53;;;;;;;8.03;98.41;100879.81;6098970;23;20472;-77
2023/04/22 00:16:34;;;;;;;8.60;7.80;;;;;;;7.97;97.62;100881.50;6100310;23;20026;-76
2023/04/22 00:19:00;;;;;;;7.82;7.13;;;;;;;7.95;98.10;100869.81;6098638;23;20086;-77
2023/04/22 00:21:27;;;;;;;8.30;7.50;;;;;;;7.92;98.21;100875.97;6101202;23;20437;-76
2023/04/22 00:23:53;;;;;;;7.70;7.03;;;;;;;7.89;98.33;100874.88;6100437;23;20019;-77
2023/04/22 00:26:20;;;;;;;12.02;7.95;;;;;;;7.87;98.70;100873.81;6100498;23;20026;-76
2023/04/22 00:28:47;;;;;;;8.98;7.88;;;;;;;7.82;98.46;100875.06;6098945;23;20051;-76
2023/04/22 00:31:13;;;;;;;9.30;7.85;;;;;;;7.78;98.61;100873.66;6098118;23;20032;-77
2023/04/22 00:33:40;;;;;;;8.90;7.95;;;;;;;7.75;98.44;100877.13;6098670;23;20078;-76
2023/04/22 00:36:06;;;;;;;8.13;7.43;;;;;;;7.69;98.68;100874.25;6098615;23;20480;-76
2023/04/22 00:38:33;;;;;;;8.75;7.72;;;;;;;7.61;97.43;100886.16;6074866;23;20019;-76
2023/04/22 00:41:00;;;;;;;8.75;7.85;;;;;;;7.55;98.42;100872.69;6099958;23;20038;-77
2023/04/22 00:43:26;;;;;;;8.35;7.50;;;;;;;7.53;97.97;100871.63;6100316;23;20022;-76
2023/04/22 00:45:53;;;;;;;7.88;7.07;;;;;;;7.49;98.10;100877.00;6097951;23;20027;-77
2023/04/22 00:48:20;;;;;;;8.57;7.22;;;;;;;7.45;98.50;100872.94;6098878;23;20103;-77
2023/04/22 00:50:46;;;;;;;9.25;6.97;;;;;;;7.42;98.52;100876.41;6100469;23;20361;-77
2023/04/22 00:53:13;;;;;;;8.40;7.53;;;;;;;7.41;98.75;100874.91;6098716;23;20058;-76
2023/04/22 00:55:40;;;;;;;9.15;7.57;;;;;;;7.36;98.75;100881.44;6098600;23;20027;-77
2023/04/22 00:58:07;;;;;;;8.13;7.32;;;;;;;7.31;98.89;100879.28;6097641;23;20026;-76
2023/04/22 01:00:33;;;;;;;9.25;7.70;;;;;;;7.28;98.92;100882.75;6098867;23;20050;-76
2023/04/22 01:03:01;;;;;;;8.07;7.25;;;;;;;7.25;99.00;100891.53;6098095;23;20494;-77
2023/04/22 01:05:30;;;;;;;8.50;7.53;;;;;;;7.20;98.95;100887.47;6100443;23;20461;-77
2023/04/22 01:07:57;;;;;;;8.30;7.32;;;;;;;7.17;98.73;100882.28;6099943;23;20015;-76
2023/04/22 01:10:24;;;;;;;8.90;7.75;;;;;;;7.13;99.28;100886.91;6100295;23;20477;-77
2023/04/22 01:12:50;;;;;;;7.70;7.00;;;;;;;7.11;99.49;100884.66;6097768;23;20054;-77
2023/04/22 01:15:17;;;;;;;9.02;7.45;;;;;;;7.09;99.24;100886.22;6098428;23;20023;-77
2023/04/22 01:17:44;;;;;;;7.38;6.75;;;;;;;7.05;99.08;100880.25;6100328;23;20019;-77
2023/04/22 01:20:11;;;;;;;7.85;7.15;;;;;;;7.00;99.33;100887.53;6074695;23;20107;-76
2023/04/22 01:22:43;;;;;;;6.60;5.90;;;;;;;6.96;99.35;100886.88;6100595;23;20043;-76
2023/04/22 01:25:11;;;;;;;6.20;5.68;;;;;;;6.92;99.13;100888.09;6098300;23;20019;-77
2023/04/22 01:27:39;;;;;;;6.55;5.90;;;;;;;6.86;98.78;100893.13;6100128;23;20021;-77
2023/04/22 01:30:07;;;;;;;5.18;4.85;;;;;;;6.81;99.04;100885.66;6100070;23;20026;-76
2023/04/22 01:32:34;;;;;;;5.75;5.25;;;;;;;6.76;98.88;100886.16;6099316;23;20021;-76
2023/04/22 01:35:01;;;;;;;9.93;5.22;;;;;;;6.72;98.92;100885.50;6099744;23;20029;-76
2023/04/22 01:37:29;;;;;;;5.45;5.15;;;;;;;6.70;98.74;100885.16;6098710;23;20026;-77
2023/04/22 01:39:58;;;;;;;6.30;5.80;;;;;;;6.69;98.82;100883.66;6074154;23;20022;-77
2023/04/22 01:42:24;;;;;;;6.35;5.85;;;;;;;6.68;99.13;100895.38;6097578;23;20045;-77
2023/04/22 01:44:51;;;;;;;6.47;5.80;;;;;;;6.64;99.06;100879.59;6098356;23;20094;-76
2023/04/22 01:47:17;;;;;;;5.93;5.43;;;;;;;6.59;99.11;100880.06;6100031;23;20019;-76
2023/04/22 01:49:44;;;;;;;5.63;5.15;;;;;;;6.55;99.11;100882.03;6100019;23;20390;-76
2023/04/22 01:52:11;;;;;;;6.40;5.80;;;;;;;6.50;99.05;100885.16;6098014;23;20030;-76
2023/04/22 01:54:37;;;;;;;5.90;5.38;;;;;;;6.49;99.04;100880.25;6098605;23;20457;-76
2023/04/22 01:57:10;;;;;;;5.75;5.25;;;;;;;6.43;98.67;100876.59;6073315;23;20047;-76
2023/04/22 01:59:37;;;;;;;5.28;4.88;;;;;;;6.38;98.74;100874.44;6074538;23;20029;-76
2023/04/22 02:02:04;;;;;;;8.20;5.15;;;;;;;6.34;98.77;100883.19;6099175;23;20038;-76
2023/04/22 02:04:31;;;;;;;5.47;4.97;;;;;;;6.29;98.40;100878.38;6098707;23;20027;-76
2023/04/22 02:06:57;;;;;;;7.38;5.28;;;;;;;6.26;98.24;100871.25;6099698;23;20038;-77
2023/04/22 02:09:24;;;;;;;7.25;6.57;;;;;;;6.22;98.28;100870.56;6100196;23;20029;-76
2023/04/22 02:11:51;;;;;;;7.15;6.45;;;;;;;6.19;98.50;100870.63;6099358;23;20018;-76
2023/04/22 02:14:19;;;;;;;7.07;6.38;;;;;;;6.18;98.25;100872.53;6074642;23;20382;-77
2023/04/22 02:16:50;;;;;;;7.88;7.00;;;;;;;6.15;97.91;100875.22;6099842;23;20019;-76
2023/04/22 02:19:17;;;;;;;6.40;5.82;;;;;;;6.09;97.75;100871.56;6099969;23;20025;-77
2023/04/22 02:21:43;;;;;;;6.53;5.88;;;;;;;6.07;97.88;100871.97;6099745;23;20019;-76
2023/04/22 02:24:10;;;;;;;7.30;6.07;;;;;;;6.02;97.83;100861.84;6099355;23;20078;-76
2023/04/22 02:26:36;;;;;;;7.65;6.30;;;;;;;5.99;98.39;100868.72;6099636;23;20043;-77
2023/04/22 02:29:03;;;;;;;6.80;6.20;;;;;;;5.95;97.89;100873.31;6099240;23;20403;-76
2023/04/22 02:31:30;;;;;;;6.85;6.18;;;;;;;5.93;98.06;100869.59;6100014;23;20022;-76
2023/04/22 02:33:56;;;;;;;8.75;7.00;;;;;;;5.91;98.34;100859.41;6099317;23;20026;-76
2023/04/22 02:36:23;;;;;;;7.53;6.85;;;;;;;5.89;98.51;100859.09;6098273;23;20044;-76
2023/04/22 02:38:50;;;;;;;7.22;6.63;;;;;;;5.88;98.40;100860.19;6097965;23;20022;-76
2023/04/22 02:41:16;;;;;;;6.78;6.15;;;;;;;5.87;98.36;100857.97;6097374;23;20019;-76
2023/04/22 02:43:45;;;;;;;7.95;7.13;;;;;;;5.86;98.77;100859.09;6099638;23;20078;-77
2023/04/22 02:46:14;;;;;;;8.00;6.72;;;;;;;5.83;98.68;100860.66;6097481;23;20453;-76
2023/04/22 02:48:42;;;;;;;13.45;6.90;;;;;;;5.80;98.83;100856.19;6097739;23;20019;-77
2023/04/22 02:51:09;;;;;;;7.88;6.68;;;;;;;5.79;99.10;100846.75;6097494;23;20045;-77
2023/04/22 02:53:36;;;;;;;7.55;6.80;;;;;;;5.79;99.22;100852.03;6074183;23;20034;-77
2023/04/22 02:56:02;;;;;;;7.68;6.93;;;;;;;5.78;99.28;100852.44;6099637;23;20019;-76
2023/04/22 02:58:29;;;;;;;8.45;7.43;;;;;;;5.75;99.05;100854.00;6099458;23;20022;-76
2023/04/22 03:00:56;;;;;;;8.75;7.13;;;;;;;5.74;99.21;100849.13;6098839;23;20023;-77
2023/04/22 03:03:23;;;;;;;8.20;6.75;;;;;;;5.71;99.25;100850.66;6099127;23;20054;-77
2023/04/22 03:05:50;;;;;;;7.05;6.43;;;;;;;5.69;99.33;100845.03;6100736;23;20449;-76
2023/04/22 03:08:18;;;;;;;6.93;6.22;;;;;;;5.69;99.12;100845.78;6098947;23;20098;-76
2023/04/22 03:10:44;;;;;;;10.80;6.82;;;;;;;5.69;99.28;100839.75;6097862;23;20023;-76
2023/04/22 03:13:14;;;;;;;6.90;6.20;;;;;;;5.64;99.04;100838.31;6099170;23;20030;-76
2023/04/22 03:15:41;;;;;;;7.32;6.63;;;;;;;5.64;99.29;100827.00;6098731;23;20023;-77
2023/04/22 03:18:08;;;;;;;8.35;6.80;;;;;;;5.64;99.38;100829.66;6099158;23;20015;-77
2023/04/22 03:20:35;;;;;;;7.88;7.07;;;;;;;5.65;99.40;100833.78;6099236;23;20090;-76
2023/04/22 03:23:01;;;;;;;12.35;7.60;;;;;;;5.64;99.51;100834.94;6098026;23;20019;-76
2023/04/22 03:25:29;;;;;;;9.60;7.65;;;;;;;5.65;99.77;100833.78;6099203;23;20019;-76
2023/04/22 03:27:56;;;;;;;9.88;8.43;;;;;;;5.64;100.00;100835.69;6098558;23;20041;-76
2023/04/22 03:30:23;;;;;;;8.98;7.80;;;;;;;5.63;100.00;100828.91;6098897;23;20022;-76
2023/04/22 03:32:52;;;;;;;10.40;8.20;;;;;;;5.60;100.00;100835.00;6074753;23;20031;-76
2023/04/22 03:35:23;;;;;;;13.73;8.20;;;;;;;5.59;100.00;100830.13;6099613;23;20094;-77
2023/04/22 03:37:51;;;;;;;9.45;8.40;;;;;;;5.54;100.00;100828.69;6098144;23;20109;-76
2023/04/22 03:40:23;;;;;;;11.20;8.30;;;;;;;5.55;100.00;100824.16;6098846;23;20097;-76
2023/04/22 03:42:49;;;;;;;11.38;9.77;;;;;;;5.53;100.00;100818.53;6098788;23;20033;-77
2023/04/22 03:45:18;;;;;;;11.13;8.95;;;;;;;5.52;100.00;100812.50;6100521;23;20745;-77
2023/04/22 03:47:52;;;;;;;10.23;9.00;;;;;;;5.48;100.00;100811.81;6099015;23;20030;-77
2023/04/22 03:50:24;;;;;;;10.63;8.95;;;;;;;5.48;100.00;100809.19;6098737;23;20019;-77
2023/04/22 03:52:52;;;;;;;10.00;7.75;;;;;;;5.50;100.00;100806.88;6074480;23;20135;-76
2023/04/22 03:55:20;;;;;;;10.27;8.10;;;;;;;5.52;100.00;100801.94;6100409;23;20015;-77
2023/04/22 03:57:50;;;;;;;10.40;8.80;;;;;;;5.52;100.00;100803.84;6098405;23;20054;-76
2023/04/22 04:00:16;;;;;;;14.38;8.77;;;;;;;5.54;100.00;100804.94;6098713;23;20186;-76
2023/04/22 04:02:50;;;;;;;10.13;8.45;;;;;;;5.54;100.00;100799.66;6075884;23;20094;-76
2023/04/22 04:05:21;;;;;;;10.18;8.55;;;;;;;5.56;100.00;100802.63;6098787;23;20022;-76
2023/04/22 04:07:48;;;;;;;12.75;9.20;;;;;;;5.57;100.00;100798.09;6099856;23;20045;-76
2023/04/22 04:10:15;;;;;;;11.52;8.40;;;;;;;5.53;100.00;100792.13;6074565;23;20050;-76
2023/04/22 04:12:42;;;;;;;11.32;8.30;;;;;;;5.50;100.00;100787.66;6098751;23;20100;-77
2023/04/22 04:15:10;;;;;;;9.10;8.05;;;;;;;5.53;100.00;100794.78;6098581;23;20465;-77
2023/04/22 04:17:38;;;;;;;13.23;8.77;;;;;;;5.54;100.00;100775.88;6098955;23;20019;-77
2023/04/22 04:20:06;;;;;;;11.70;8.70;;;;;;;5.55;100.00;100780.03;6100103;23;20094;-77
2023/04/22 04:22:34;;;;;;;11.98;9.10;;;;;;;5.56;100.00;100784.16;6098244;23;20428;-76
2023/04/22 04:25:03;;;;;;;11.05;9.02;;;;;;;5.59;100.00;100779.97;6098184;23;20018;-76
2023/04/22 04:27:38;;;;;;;10.68;9.00;;;;;;;5.61;100.00;100775.00;6100922;23;20018;-77
2023/04/22 04:30:05;;;;;;;11.60;8.75;;;;;;;5.63;100.00;100777.97;6098469;23;20023;-77
2023/04/22 04:32:39;;;;;;;9.88;8.65;;;;;;;5.63;100.00;100776.09;6098526;23;20469;-76
2023/04/22 04:35:08;;;;;;;10.38;8.65;;;;;;;5.65;100.00;100783.59;6098651;23;20019;-76
2023/04/22 04:37:39;;;;;;;9.50;8.50;;;;;;;5.65;100.00;100779.06;6097868;23;20106;-76
2023/04/22 04:40:09;;;;;;;10.85;8.82;;;;;;;5.65;100.00;100773.78;6100097;23;20095;-76
2023/04/22 04:42:42;;;;;;;9.52;8.50;;;;;;;5.69;100.00;100784.28;6098288;23;20018;-77
2023/04/22 04:45:16;;;;;;;9.77;8.73;;;;;;;5.69;100.00;100795.59;6098713;23;20343;-76
2023/04/22 04:47:43;;;;;;;10.02;8.52;;;;;;;5.69;100.00;100782.38;6100311;23;20026;-76
2023/04/22 04:50:26;;;;;;;13.48;8.60;;;;;;;5.69;100.00;100774.47;6098454;23;20110;-76
2023/04/22 04:52:57;;;;;;;9.23;8.20;;;;;;;5.72;100.00;100770.28;6097916;23;20472;-76
2023/04/22 04:55:29;;;;;;;11.32;8.75;;;;;;;5.74;100.00;100764.59;6098937;23;20019;-76
2023/04/22 04:57:57;;;;;;;11.27;8.73;;;;;;;5.74;100.00;100757.41;6074054;23;20069;-76
2023/04/22 05:00:23;;;;;;;9.73;8.48;;;;;;;5.75;100.00;100760.78;6098951;23;20180;-77
2023/04/22 05:02:50;;;;;;;12.27;9.23;;;;;;;5.78;100.00;100762.63;6098613;23;20019;-76
2023/04/22 05:05:17;;;;;;;9.45;8.40;;;;;;;5.81;100.00;100757.28;6073916;23;20042;-77
2023/04/22 05:07:44;;;;;;;10.60;8.55;;;;;;;5.83;100.00;100762.16;6098629;23;20019;-76
2023/04/22 05:10:13;;;;;;;10.40;8.68;;;;;;;5.85;100.00;100765.16;6097963;23;20023;-76
2023/04/22 05:12:40;;;;;;;9.98;8.35;;;;;;;5.85;100.00;100760.59;6098530;23;20037;-76
2023/04/22 05:15:10;;;;;;;10.57;9.00;;;;;;;5.88;100.00;100765.09;6098376;23;20098;-76
2023/04/22 05:17:38;;;;;;;9.43;8.52;;;;;;;5.88;100.00;100764.34;6097993;23;20025;-76
2023/04/22 05:20:05;;;;;;;9.82;8.82;;;;;;;5.91;100.00;100782.81;6097733;23;20015;-76
2023/04/22 05:22:33;;;;;;;12.40;8.95;;;;;;;5.93;100.00;100774.47;6100576;23;20015;-76
2023/04/22 05:25:00;;;;;;;9.88;8.40;;;;;;;5.95;100.00;100774.81;6097959;23;20019;-76
2023/04/22 05:27:26;;;;;;;10.90;9.70;;;;;;;5.95;100.00;100783.47;6098935;23;20021;-76
2023/04/22 05:29:53;;;;;;;9.10;8.20;;;;;;;5.98;100.00;100780.03;6098342;23;20058;-76
2023/04/22 05:32:24;;;;;;;11.00;9.10;;;;;;;6.01;100.00;100778.44;6098618;23;20038;-77
2023/04/22 05:34:51;;;;;;;9.95;8.93;;;;;;;6.01;100.00;100781.09;6073626;23;20121;-76
2023/04/22 05:37:18;;;;;;;10.13;8.90;;;;;;;6.05;100.00;100789.69;6098332;23;20472;-76
2023/04/22 05:39:45;;;;;;;9.82;8.75;;;;;;;6.08;100.00;100780.22;6098426;23;20026;-76
2023/04/22 05:42:11;;;;;;;12.32;9.48;;;;;;;6.14;100.00;100775.94;6100178;23;20023;-76
2023/04/22 05:44:41;;;;;;;10.18;9.07;;;;;;;6.19;100.00;100776.22;6098409;23;20025;-76
2023/04/22 05:47:08;;;;;;;11.25;9.45;;;;;;;6.25;100.00;100789.69;6098320;23;20461;-77
2023/04/22 05:49:35;;;;;;;10.82;9.73;;;;;;;6.28;100.00;100783.59;6100043;23;20086;-76
2023/04/22 05:52:01;;;;;;;10.52;9.35;;;;;;;6.31;100.00;100788.81;6099715;23;20094;-76
2023/04/22 05:54:37;;;;;;;10.73;9.02;;;;;;;6.39;100.00;100781.50;6098462;23;20400;-76
2023/04/22 05:57:05;;;;;;;11.88;8.90;;;;;;;6.46;100.00;100780.59;6098221;23;20093;-76
2023/04/22 05:59:32;;;;;;;12.75;9.27;;;;;;;6.52;100.00;100784.22;6098423;23;20350;-76
2023/04/22 06:01:58;;;;;;;10.18;9.05;;;;;;;6.58;100.00;100779.97;6073764;23;20034;-76
2023/04/22 06:04:25;;;;;;;10.38;9.27;;;;;;;6.62;100.00;100781.38;6099643;23;20390;-76
2023/04/22 06:06:52;;;;;;;8.98;8.07;;;;;;;6.68;100.00;100781.63;6098361;23;20487;-77
2023/04/22 06:09:20;;;;;;;11.35;9.02;;;;;;;6.72;100.00;100782.31;6098108;23;20496;-76
2023/04/22 06:11:46;;;;;;;13.15;9.18;;;;;;;6.77;100.00;100786.38;6100232;23;20023;-77
2023/04/22 06:14:13;;;;;;;9.27;8.35;;;;;;;6.83;100.00;100782.78;6100925;23;20019;-77
2023/04/22 06:16:42;;;;;;;10.13;8.88;;;;;;;6.90;100.00;100772.06;6099314;23;20093;-76
2023/04/22 06:19:08;;;;;;;9.35;8.43;;;;;;;6.95;100.00;100771.56;6098178;23;20339;-78
2023/04/22 06:21:38;;;;;;;10.68;9.13;;;;;;;7.02;100.00;100770.66;6099171;23;20106;-76
2023/04/22 06:24:05;;;;;;;9.30;8.38;;;;;;;7.08;100.00;100773.56;6100634;23;20045;-76
2023/04/22 06:26:31;;;;;;;10.85;9.70;;;;;;;7.17;100.00;100776.38;6099196;23;20022;-76
2023/04/22 06:28:59;;;;;;;11.10;9.23;;;;;;;7.28;100.00;100763.59;6099019;23;20025;-76
2023/04/22 06:31:25;;;;;;;11.60;9.23;;;;;;;7.37;100.00;100758.47;6098587;23;20023;-76
2023/04/22 06:33:52;;;;;;;11.40;10.18;;;;;;;7.48;100.00;100761.59;6101105;23;20019;-76
2023/04/22 06:36:18;;;;;;;12.65;9.60;;;;;;;7.59;100.00;100762.09;6098862;23;20023;-76
2023/04/22 06:38:51;;;;;;;16.83;10.93;;;;;;;7.74;100.00;100761.69;6099330;23;20015;-79
2023/04/22 06:41:35;;;;;;;12.95;10.80;;;;;;;7.90;100.00;100751.78;6098840;23;20027;-76
2023/04/22 06:44:10;;;;;;;14.13;10.38;;;;;;;8.08;100.00;100743.34;6099011;23;20476;-76
2023/04/22 06:46:55;;;;;;;16.00;12.30;;;;;;;8.27;100.00;100745.06;6100021;23;20027;-77
2023/04/22 06:49:45;;;;;;;17.58;14.05;;;;;;;8.46;100.00;100734.69;6098873;23;20019;-77
2023/04/22 06:52:30;;;;;;;21.30;15.75;;;;;;;8.55;100.00;100734.81;6100787;23;20031;-78
2023/04/22 06:54:57;;;;;;;23.25;16.00;;;;;;;8.62;100.00;100731.94;6100521;23;20107;-80
2023/04/22 06:57:24;;;;;;;20.92;16.25;;;;;;;8.71;100.00;100732.06;6101053;23;20105;-80
2023/04/22 06:59:50;;;;;;;18.33;16.02;;;;;;;8.81;100.00;100730.22;6130233;23;20019;-79
2023/04/22 07:02:17;;;;;;;24.13;15.88;;;;;;;8.98;100.00;100731.59;6102867;23;20019;-80
2023/04/22 07:04:44;;;;;;;21.98;15.85;;;;;;;9.06;100.00;100722.22;6079887;23;20022;-80
2023/04/22 07:07:10;;;;;;;22.83;16.80;;;;;;;9.12;100.00;100722.44;6103509;23;20036;-80
2023/04/22 07:09:38;;;;;;;21.70;16.42;;;;;;;9.29;100.00;100719.16;6079924;23;20456;-77
2023/04/22 07:12:05;;;;;;;21.45;17.05;;;;;;;9.37;100.00;100717.03;6103136;23;20106;-77
2023/04/22 07:14:32;;;;;;;21.27;17.83;;;;;;;9.44;100.00;100719.44;6129669;23;20053;-77
2023/04/22 07:16:59;;;;;;;27.75;19.48;;;;;;;9.55;100.00;100721.75;6128206;23;20035;-77
2023/04/22 07:19:25;;;;;;;26.23;21.05;;;;;;;9.63;100.00;100723.69;6129671;23;20021;-77
2023/04/22 07:21:52;;;;;;;27.55;20.45;;;;;;;9.72;100.00;100730.25;6103502;23;20082;-77
2023/04/22 07:24:19;;;;;;;34.75;23.98;;;;;;;9.81;100.00;100722.34;6129371;23;20019;-79
2023/04/22 07:26:45;;;;;;;31.15;22.67;;;;;;;9.84;100.00;100724.88;6129763;23;20054;-80
2023/04/22 07:29:12;;;;;;;30.15;21.05;;;;;;;9.93;100.00;100726.88;6129615;23;20022;-78
2023/04/22 07:31:38;;;;;;;29.45;21.75;;;;;;;10.04;100.00;100722.63;6103116;23;20030;-76
2023/04/22 07:34:05;;;;;;;25.92;20.58;;;;;;;10.21;100.00;100725.84;6129541;23;20018;-76
2023/04/22 07:36:32;;;;;;;23.83;18.73;;;;;;;10.51;100.00;100729.66;6129761;23;20014;-77
2023/04/22 07:38:58;;;;;;;21.60;18.05;;;;;;;10.86;100.00;100719.53;6103381;23;20021;-76
2023/04/22 07:41:25;;;;;;;20.48;18.25;;;;;;;11.27;99.31;100710.25;6130206;23;20049;-80
2023/04/22 07:43:51;;;;;;;19.50;17.17;;;;;;;11.52;97.78;100727.13;6130435;23;20030;-78
2023/04/22 07:46:18;;;;;;;22.77;17.23;;;;;;;11.67;95.67;100726.06;6130823;23;20014;-77
2023/04/22 07:48:45;;;;;;;21.13;17.35;;;;;;;11.88;95.11;100739.69;6130934;23;20437;-79
2023/04/22 07:51:12;;;;;;;19.83;17.23;;;;;;;12.06;95.06;100734.31;6104795;23;20026;-78
2023/04/22 07:53:38;;;;;;;24.85;17.33;;;;;;;12.17;95.25;100731.91;6130983;23;20070;-78
2023/04/22 07:56:05;;;;;;;19.67;15.90;;;;;;;12.20;93.81;100735.59;6130624;23;20042;-78
2023/04/22 07:58:31;;;;;;;22.50;17.83;;;;;;;12.32;94.45;100737.34;6130077;23;20019;-78
2023/04/22 08:00:58;;;;;;;20.60;17.55;;;;;;;12.55;93.43;100743.91;6130729;23;20074;-77
2023/04/22 08:03:25;;;;;;;18.52;16.48;;;;;;;12.79;91.42;100747.38;6130842;23;20022;-78
2023/04/22 08:05:52;;;;;;;17.50;15.77;;;;;;;13.06;91.52;100749.13;6130226;23;20041;-79
2023/04/22 08:08:18;;;;;;;16.85;14.93;;;;;;;13.06;89.72;100740.38;6129280;23;20018;-79
2023/04/22 08:10:44;;;;;;;16.25;14.55;;;;;;;12.99;90.25;100742.19;6129435;23;20090;-79
2023/04/22 08:13:11;;;;;;;16.38;14.73;;;;;;;13.22;89.67;100734.63;6129326;23;20467;-79
2023/04/22 08:15:38;;;;;;;16.67;15.05;;;;;;;13.43;90.00;100730.16;6129733;23;20448;-79
2023/04/22 08:18:04;;;;;;;16.48;14.75;;;;;;;13.80;90.13;100723.25;6129200;23;20096;-79
2023/04/22 08:20:31;;;;;;;16.98;15.25;;;;;;;14.17;88.80;100706.81;6129987;23;20022;-79
2023/04/22 08:22:59;;;;;;;15.45;13.85;;;;;;;14.43;83.32;100707.69;6104893;23;20243;-79
2023/04/22 08:25:27;;;;;;;15.70;14.20;;;;;;;14.54;82.65;100712.47;6130699;23;20041;-77
2023/04/22 08:27:53;;;;;;;14.68;13.18;;;;;;;14.58;81.92;100703.03;6130151;23;20042;-79
2023/04/22 08:30:20;;;;;;;13.52;12.23;;;;;;;14.53;82.13;100692.22;6130652;23;20074;-77
2023/04/22 08:32:46;;;;;;;13.75;12.35;;;;;;;14.54;80.94;100689.09;6130934;23;20264;-79
2023/04/22 08:35:13;;;;;;;13.38;12.00;;;;;;;14.91;81.52;100688.56;6130565;23;20097;-79
2023/04/22 08:37:40;;;;;;;13.65;11.45;;;;;;;15.12;79.62;100671.25;6130876;23;20015;-79
2023/04/22 08:40:07;;;;;;;12.15;11.10;;;;;;;15.25;77.01;100681.59;6130331;23;20059;-80
2023/04/22 08:42:34;;;;;;;13.07;11.73;;;;;;;15.31;76.30;100685.06;6130099;23;20018;-78
2023/04/22 08:45:02;;;;;;;13.25;12.00;;;;;;;15.40;78.34;100687.59;6130347;23;20022;-79
2023/04/22 08:47:31;;;;;;;13.70;11.70;;;;;;;15.33;75.91;100682.66;6130444;23;20018;-78
2023/04/22 08:50:01;;;;;;;11.23;10.10;;;;;;;15.54;76.50;100680.66;6130357;23;20023;-77
2023/04/22 08:52:29;;;;;;;12.30;10.10;;;;;;;15.62;76.05;100684.41;6129731;23;20464;-77
2023/04/22 08:54:56;;;;;;;10.90;9.90;;;;;;;15.65;74.37;100681.50;6130403;23;20038;-77
2023/04/22 08:57:22;;;;;;;11.05;10.02;;;;;;;15.89;75.43;100672.44;6129796;23;20025;-78
2023/04/22 08:59:50;;;;;;;10.63;9.52;;;;;;;15.97;73.30;100681.53;6130730;23;20029;-77
2023/04/22 09:02:20;;;;;;;14.73;10.00;;;;;;;15.90;73.75;100677.31;6130220;23;20019;-77
2023/04/22 09:04:48;;;;;;;11.23;10.07;;;;;;;15.90;73.02;100671.22;6130701;23;20033;-77
2023/04/22 09:07:21;;;;;;;11.55;10.18;;;;;;;15.90;72.33;100676.59;6130410;23;20057;-77
2023/04/22 09:09:48;;;;;;;11.02;10.02;;;;;;;15.93;73.16;100676.38;6130364;23;20023;-77
2023/04/22 09:12:17;;;;;;;11.32;10.30;;;;;;;16.09;71.52;100669.63;6129383;23;20524;-77
2023/04/22 09:14:44;;;;;;;10.68;9.77;;;;;;;16.31;70.36;100659.03;6130734;23;20420;-76
2023/04/22 09:17:14;;;;;;;10.95;10.05;;;;;;;16.59;69.46;100658.41;6129522;23;20050;-75
2023/04/22 09:19:41;;;;;;;10.18;9.23;;;;;;;16.77;70.11;100651.91;6130431;23;20026;-78
2023/04/22 09:22:13;;;;;;;10.77;9.70;;;;;;;16.99;67.87;100652.69;6130021;23;20014;-77
2023/04/22 09:24:49;;;;;;;9.82;8.98;;;;;;;17.23;67.81;100646.13;6130467;23;20026;-78
2023/04/22 09:27:16;;;;;;;11.02;10.02;;;;;;;17.50;66.68;100639.31;6129389;23;20448;-77
2023/04/22 09:29:51;;;;;;;11.57;10.48;;;;;;;17.74;66.40;100647.66;6130332;23;20027;-78
2023/04/22 09:32:18;;;;;;;11.63;10.43;;;;;;;17.79;64.34;100644.22;6130097;23;20019;-78
2023/04/22 09:34:50;;;;;;;10.15;9.23;;;;;;;17.91;64.93;100645.69;6104633;23;20461;-78
2023/04/22 09:37:24;;;;;;;11.00;9.90;;;;;;;18.13;63.47;100627.97;6103982;23;20018;-77
2023/04/22 09:39:56;;;;;;;11.00;9.90;;;;;;;17.95;63.61;100630.00;6129347;23;20133;-78
2023/04/22 09:42:22;;;;;;;10.93;10.02;;;;;;;18.10;63.00;100626.28;6130422;23;20412;-78
2023/04/22 09:44:53;;;;;;;11.63;10.15;;;;;;;18.47;65.01;100613.16;6130456;23;20019;-78
2023/04/22 09:47:22;;;;;;;17.23;10.70;;;;;;;18.66;62.95;100607.97;6104331;23;20022;-77
2023/04/22 09:49:49;;;;;;;11.95;10.85;;;;;;;18.80;60.64;100606.16;6130701;23;20086;-77
2023/04/22 09:52:26;;;;;;;12.00;11.00;;;;;;;18.96;61.89;100611.44;6104663;23;20023;-76
2023/04/22 09:54:53;;;;;;;11.80;10.70;;;;;;;19.01;61.70;100617.31;6129882;23;20102;-76
2023/04/22 09:57:20;;;;;;;11.80;10.80;;;;;;;19.17;61.55;100608.38;6129857;23;20043;-77
2023/04/22 09:59:51;;;;;;;13.63;12.25;;;;;;;19.33;60.61;100607.50;6130723;23;20023;-77
2023/04/22 10:02:27;;;;;;;13.70;12.40;;;;;;;19.36;60.96;100609.19;6130180;23;20022;-77
2023/04/22 10:04:55;;;;;;;13.90;11.93;;;;;;;19.47;60.66;100609.13;6130121;23;20077;-77
2023/04/22 10:07:23;;;;;;;12.85;11.68;;;;;;;19.49;59.67;100601.25;6130358;23;20014;-77
2023/04/22 10:09:49;;;;;;;14.18;12.60;;;;;;;19.67;59.76;100613.38;6129869;23;20022;-77
2023/04/22 10:12:16;;;;;;;14.27;12.02;;;;;;;19.67;58.79;100599.88;6130012;23;20703;-77
2023/04/22 10:14:54;;;;;;;13.65;12.25;;;;;;;19.86;60.63;100599.94;6130716;23;20073;-77
2023/04/22 10:17:21;;;;;;;13.20;12.00;;;;;;;19.97;59.09;100603.25;6130073;23;20089;-77
2023/04/22 10:19:48;;;;;;;14.18;12.98;;;;;;;19.93;57.07;100596.69;6130383;23;20026;-77
2023/04/22 10:22:15;;;;;;;13.48;12.23;;;;;;;20.17;57.25;100601.31;6129922;23;20015;-76
2023/04/22 10:24:46;;;;;;;13.48;12.38;;;;;;;20.25;57.68;100597.53;6103987;23;20424;-79
2023/04/22 10:27:15;;;;;;;13.60;12.20;;;;;;;19.97;58.47;100594.41;6130160;23;20022;-79
2023/04/22 10:29:42;;;;;;;13.75;12.35;;;;;;;19.57;59.12;100606.84;6129801;23;20046;-77
2023/04/22 10:32:09;;;;;;;16.33;12.55;;;;;;;19.40;60.13;100603.53;6129951;23;20448;-78
2023/04/22 10:34:40;;;;;;;13.73;11.73;;;;;;;19.43;61.31;100605.97;6130125;23;20423;-78
2023/04/22 10:37:09;;;;;;;14.70;12.45;;;;;;;19.48;60.49;100613.28;6130041;23;20061;-78
2023/04/22 10:39:38;;;;;;;14.45;12.95;;;;;;;19.46;59.38;100610.34;6129648;23;20018;-77
2023/04/22 10:42:10;;;;;;;14.27;12.45;;;;;;;19.44;60.39;100612.81;6129862;23;20014;-79
2023/04/22 10:45:03;;;;;;;13.63;12.20;;;;;;;19.47;60.08;100605.69;6129907;23;20089;-77
2023/04/22 10:47:35;;;;;;;14.02;11.73;;;;;;;19.37;60.20;100616.06;6123748;23;20050;-77
2023/04/22 10:50:30;;;;;;;12.75;11.50;;;;;;;19.29;60.11;100618.56;6129453;23;20030;-77
2023/04/22 10:52:58;;;;;;;12.90;11.70;;;;;;;19.29;60.84;100615.88;6128890;23;20018;-78
2023/04/22 10:55:51;;;;;;;12.80;10.80;;;;;;;19.39;60.65;100621.69;6130017;23;20026;-80
2023/04/22 10:58:23;;;;;;;14.93;11.77;;;;;;;19.38;59.52;100622.94;6128977;23;20015;-81
2023/04/22 11:00:56;;;;;;;16.30;12.32;;;;;;;19.64;59.41;100617.81;6129996;23;20085;-78
2023/04/22 11:03:28;;;;;;;13.60;12.20;;;;;;;19.52;59.62;100621.88;6130545;23;20034;-84
2023/04/22 11:06:15;;;;;;;12.63;11.48;;;;;;;19.32;60.04;100625.66;6129494;23;20792;-91
2023/04/22 11:08:49;;;;;;;12.70;10.50;;;;;;;19.11;59.54;100631.97;6102742;23;20525;-80
2023/04/22 11:11:17;;;;;;;13.27;10.35;;;;;;;18.95;60.05;100626.16;6128941;23;20022;-75
2023/04/22 11:13:49;;;;;;;11.70;10.60;;;;;;;19.05;60.73;100628.56;6129599;23;20046;-77
2023/04/22 11:16:15;;;;;;;11.90;10.80;;;;;;;18.97;59.92;100625.66;6104256;23;20023;-77
2023/04/22 11:18:45;;;;;;;12.90;11.20;;;;;;;18.79;60.21;100628.97;6130925;23;20025;-77
2023/04/22 11:21:13;;;;;;;13.00;11.77;;;;;;;18.53;60.66;100629.31;6104718;23;20023;-77
2023/04/22 11:23:50;;;;;;;13.55;12.15;;;;;;;18.46;61.22;100619.03;6130259;23;20014;-77
2023/04/22 11:26:16;;;;;;;16.83;12.75;;;;;;;18.60;62.06;100610.69;6130560;23;20014;-77